<?xml version="1.0" encoding="UTF-8" standalone="no" ?>
<gpx xmlns="http://www.topografix.com/GPX/1/1" xmlns:xsi="http://www.w3.org/2001/XMLSchema-instance" xsi:schemaLocation="http://www.topografix.com/GPX/1/1 http://www.topografix.com/GPX/1/1/gpx.xsd" version="1.1" creator="VisuGPX - https://www.visugpx.com">
  <metadata>
    <name>2024-12-24  Randonnée TwoNav</name>
    <desc><![CDATA[2024-12-24_143952.trk]]></desc>
  </metadata>
  <trk>
    <name><![CDATA[2024-12-24  Randonnée TwoNav_1]]></name>
    <trkseg>
      <trkpt lat="50.11539" lon="4.0882">
        <ele>170.1</ele>
        <time>2024-12-24T13:39:52Z</time>
      </trkpt>
      <trkpt lat="50.11539" lon="4.0882">
        <ele>170.1</ele>
        <time>2024-12-24T13:39:52Z</time>
      </trkpt>
      <trkpt lat="50.11538" lon="4.08822">
        <ele>170.1</ele>
        <time>2024-12-24T13:39:53Z</time>
      </trkpt>
      <trkpt lat="50.11538" lon="4.08825">
        <ele>170.1</ele>
        <time>2024-12-24T13:39:54Z</time>
      </trkpt>
      <trkpt lat="50.11538" lon="4.08826">
        <ele>170.1</ele>
        <time>2024-12-24T13:39:55Z</time>
      </trkpt>
      <trkpt lat="50.11538" lon="4.08827">
        <ele>170.1</ele>
        <time>2024-12-24T13:39:56Z</time>
      </trkpt>
      <trkpt lat="50.11538" lon="4.08828">
        <ele>170.1</ele>
        <time>2024-12-24T13:39:57Z</time>
      </trkpt>
      <trkpt lat="50.11537" lon="4.08829">
        <ele>170.1</ele>
        <time>2024-12-24T13:39:58Z</time>
      </trkpt>
      <trkpt lat="50.11536" lon="4.08831">
        <ele>170.1</ele>
        <time>2024-12-24T13:39:59Z</time>
      </trkpt>
      <trkpt lat="50.11535" lon="4.08832">
        <ele>170.1</ele>
        <time>2024-12-24T13:40:00Z</time>
      </trkpt>
      <trkpt lat="50.11533" lon="4.08832">
        <ele>170.2</ele>
        <time>2024-12-24T13:40:01Z</time>
      </trkpt>
      <trkpt lat="50.11532" lon="4.08833">
        <ele>170.2</ele>
        <time>2024-12-24T13:40:02Z</time>
      </trkpt>
      <trkpt lat="50.1153" lon="4.08834">
        <ele>170.2</ele>
        <time>2024-12-24T13:40:03Z</time>
      </trkpt>
      <trkpt lat="50.11529" lon="4.08834">
        <ele>170.2</ele>
        <time>2024-12-24T13:40:04Z</time>
      </trkpt>
      <trkpt lat="50.11529" lon="4.08835">
        <ele>170.2</ele>
        <time>2024-12-24T13:40:05Z</time>
      </trkpt>
      <trkpt lat="50.11528" lon="4.08849">
        <ele>170.2</ele>
        <time>2024-12-24T13:40:16Z</time>
      </trkpt>
      <trkpt lat="50.11529" lon="4.08864">
        <ele>170.2</ele>
        <time>2024-12-24T13:40:22Z</time>
      </trkpt>
      <trkpt lat="50.11531" lon="4.08878">
        <ele>170.3</ele>
        <time>2024-12-24T13:40:32Z</time>
      </trkpt>
      <trkpt lat="50.11526" lon="4.08891">
        <ele>170.3</ele>
        <time>2024-12-24T13:40:51Z</time>
      </trkpt>
      <trkpt lat="50.11526" lon="4.08906">
        <ele>170.4</ele>
        <time>2024-12-24T13:40:56Z</time>
      </trkpt>
      <trkpt lat="50.11521" lon="4.08919">
        <ele>170.4</ele>
        <time>2024-12-24T13:41:14Z</time>
      </trkpt>
      <trkpt lat="50.11514" lon="4.0893">
        <ele>170.4</ele>
        <time>2024-12-24T13:41:21Z</time>
      </trkpt>
      <trkpt lat="50.11514" lon="4.08945">
        <ele>170.5</ele>
        <time>2024-12-24T13:41:25Z</time>
      </trkpt>
      <trkpt lat="50.11505" lon="4.08955">
        <ele>170.5</ele>
        <time>2024-12-24T13:41:33Z</time>
      </trkpt>
      <trkpt lat="50.11498" lon="4.08967">
        <ele>170.5</ele>
        <time>2024-12-24T13:41:38Z</time>
      </trkpt>
      <trkpt lat="50.1149" lon="4.08975">
        <ele>170.5</ele>
        <time>2024-12-24T13:41:53Z</time>
      </trkpt>
      <trkpt lat="50.11483" lon="4.08985">
        <ele>170.5</ele>
        <time>2024-12-24T13:42:01Z</time>
      </trkpt>
      <trkpt lat="50.11476" lon="4.08999">
        <ele>170.6</ele>
        <time>2024-12-24T13:42:05Z</time>
      </trkpt>
      <trkpt lat="50.11472" lon="4.09011">
        <ele>170.6</ele>
        <time>2024-12-24T13:42:20Z</time>
      </trkpt>
      <trkpt lat="50.11463" lon="4.09017">
        <ele>170.6</ele>
        <time>2024-12-24T13:42:29Z</time>
      </trkpt>
      <trkpt lat="50.11454" lon="4.09025">
        <ele>170.6</ele>
        <time>2024-12-24T13:42:38Z</time>
      </trkpt>
      <trkpt lat="50.11444" lon="4.09025">
        <ele>170.5</ele>
        <time>2024-12-24T13:42:44Z</time>
      </trkpt>
      <trkpt lat="50.11435" lon="4.09027">
        <ele>170.5</ele>
        <time>2024-12-24T13:42:49Z</time>
      </trkpt>
      <trkpt lat="50.11426" lon="4.09031">
        <ele>170.5</ele>
        <time>2024-12-24T13:42:59Z</time>
      </trkpt>
      <trkpt lat="50.11421" lon="4.09043">
        <ele>170.5</ele>
        <time>2024-12-24T13:43:06Z</time>
      </trkpt>
      <trkpt lat="50.11425" lon="4.0906">
        <ele>170.5</ele>
        <time>2024-12-24T13:43:20Z</time>
      </trkpt>
      <trkpt lat="50.11417" lon="4.09068">
        <ele>170.5</ele>
        <time>2024-12-24T13:43:34Z</time>
      </trkpt>
      <trkpt lat="50.11408" lon="4.09071">
        <ele>170.6</ele>
        <time>2024-12-24T13:43:40Z</time>
      </trkpt>
      <trkpt lat="50.11399" lon="4.09078">
        <ele>170.6</ele>
        <time>2024-12-24T13:43:51Z</time>
      </trkpt>
      <trkpt lat="50.11396" lon="4.09092">
        <ele>170.7</ele>
        <time>2024-12-24T13:43:59Z</time>
      </trkpt>
      <trkpt lat="50.11388" lon="4.09101">
        <ele>170.7</ele>
        <time>2024-12-24T13:44:08Z</time>
      </trkpt>
      <trkpt lat="50.11384" lon="4.09114">
        <ele>170.8</ele>
        <time>2024-12-24T13:44:22Z</time>
      </trkpt>
      <trkpt lat="50.11378" lon="4.09126">
        <ele>171</ele>
        <time>2024-12-24T13:44:29Z</time>
      </trkpt>
      <trkpt lat="50.1137" lon="4.09133">
        <ele>171.1</ele>
        <time>2024-12-24T13:44:36Z</time>
      </trkpt>
      <trkpt lat="50.11372" lon="4.09128">
        <ele>171.2</ele>
        <time>2024-12-24T13:44:45Z</time>
      </trkpt>
      <trkpt lat="50.11372" lon="4.09128">
        <ele>171.3</ele>
        <time>2024-12-24T13:44:46Z</time>
      </trkpt>
      <trkpt lat="50.11369" lon="4.09131">
        <ele>171.4</ele>
        <time>2024-12-24T13:45:00Z</time>
      </trkpt>
      <trkpt lat="50.11368" lon="4.09132">
        <ele>171.5</ele>
        <time>2024-12-24T13:45:01Z</time>
      </trkpt>
      <trkpt lat="50.11367" lon="4.09148">
        <ele>171.9</ele>
        <time>2024-12-24T13:45:08Z</time>
      </trkpt>
      <trkpt lat="50.11367" lon="4.09162">
        <ele>172.2</ele>
        <time>2024-12-24T13:45:15Z</time>
      </trkpt>
      <trkpt lat="50.11373" lon="4.09174">
        <ele>172.1</ele>
        <time>2024-12-24T13:45:21Z</time>
      </trkpt>
      <trkpt lat="50.11381" lon="4.09182">
        <ele>172</ele>
        <time>2024-12-24T13:45:33Z</time>
      </trkpt>
      <trkpt lat="50.11389" lon="4.0919">
        <ele>171.9</ele>
        <time>2024-12-24T13:45:46Z</time>
      </trkpt>
      <trkpt lat="50.11397" lon="4.09198">
        <ele>171.7</ele>
        <time>2024-12-24T13:45:52Z</time>
      </trkpt>
      <trkpt lat="50.11407" lon="4.09205">
        <ele>171.6</ele>
        <time>2024-12-24T13:45:59Z</time>
      </trkpt>
      <trkpt lat="50.11414" lon="4.09214">
        <ele>171.5</ele>
        <time>2024-12-24T13:46:08Z</time>
      </trkpt>
      <trkpt lat="50.11423" lon="4.09215">
        <ele>171.5</ele>
        <time>2024-12-24T13:46:24Z</time>
      </trkpt>
      <trkpt lat="50.11432" lon="4.09219">
        <ele>171.4</ele>
        <time>2024-12-24T13:46:34Z</time>
      </trkpt>
      <trkpt lat="50.1144" lon="4.09227">
        <ele>171.4</ele>
        <time>2024-12-24T13:46:43Z</time>
      </trkpt>
      <trkpt lat="50.11449" lon="4.09233">
        <ele>171.3</ele>
        <time>2024-12-24T13:46:52Z</time>
      </trkpt>
      <trkpt lat="50.11457" lon="4.09237">
        <ele>171.3</ele>
        <time>2024-12-24T13:47:03Z</time>
      </trkpt>
      <trkpt lat="50.11467" lon="4.09241">
        <ele>171.3</ele>
        <time>2024-12-24T13:47:11Z</time>
      </trkpt>
      <trkpt lat="50.11476" lon="4.09248">
        <ele>171.2</ele>
        <time>2024-12-24T13:47:24Z</time>
      </trkpt>
      <trkpt lat="50.11485" lon="4.0925">
        <ele>171.2</ele>
        <time>2024-12-24T13:47:35Z</time>
      </trkpt>
      <trkpt lat="50.11494" lon="4.09256">
        <ele>171.2</ele>
        <time>2024-12-24T13:47:43Z</time>
      </trkpt>
      <trkpt lat="50.11501" lon="4.09261">
        <ele>171.2</ele>
        <time>2024-12-24T13:47:59Z</time>
      </trkpt>
      <trkpt lat="50.11501" lon="4.0926">
        <ele>171.2</ele>
        <time>2024-12-24T13:48:00Z</time>
      </trkpt>
      <trkpt lat="50.11501" lon="4.09259">
        <ele>171.2</ele>
        <time>2024-12-24T13:48:01Z</time>
      </trkpt>
      <trkpt lat="50.11505" lon="4.09257">
        <ele>171.2</ele>
        <time>2024-12-24T13:48:04Z</time>
      </trkpt>
      <trkpt lat="50.11506" lon="4.09256">
        <ele>171.2</ele>
        <time>2024-12-24T13:48:05Z</time>
      </trkpt>
      <trkpt lat="50.11508" lon="4.09256">
        <ele>171.2</ele>
        <time>2024-12-24T13:48:06Z</time>
      </trkpt>
      <trkpt lat="50.11513" lon="4.09244">
        <ele>171.3</ele>
        <time>2024-12-24T13:48:15Z</time>
      </trkpt>
      <trkpt lat="50.11513" lon="4.09229">
        <ele>171.3</ele>
        <time>2024-12-24T13:48:27Z</time>
      </trkpt>
      <trkpt lat="50.1151" lon="4.09214">
        <ele>171.3</ele>
        <time>2024-12-24T13:48:37Z</time>
      </trkpt>
      <trkpt lat="50.11514" lon="4.09201">
        <ele>171.3</ele>
        <time>2024-12-24T13:48:45Z</time>
      </trkpt>
      <trkpt lat="50.1152" lon="4.09189">
        <ele>171.4</ele>
        <time>2024-12-24T13:48:54Z</time>
      </trkpt>
      <trkpt lat="50.11529" lon="4.09184">
        <ele>171.5</ele>
        <time>2024-12-24T13:49:02Z</time>
      </trkpt>
      <trkpt lat="50.11531" lon="4.09169">
        <ele>171.5</ele>
        <time>2024-12-24T13:49:13Z</time>
      </trkpt>
      <trkpt lat="50.11535" lon="4.09155">
        <ele>171.6</ele>
        <time>2024-12-24T13:49:21Z</time>
      </trkpt>
      <trkpt lat="50.1154" lon="4.09143">
        <ele>171.6</ele>
        <time>2024-12-24T13:49:31Z</time>
      </trkpt>
      <trkpt lat="50.11548" lon="4.09132">
        <ele>171.5</ele>
        <time>2024-12-24T13:49:37Z</time>
      </trkpt>
      <trkpt lat="50.11553" lon="4.0912">
        <ele>171.5</ele>
        <time>2024-12-24T13:49:48Z</time>
      </trkpt>
      <trkpt lat="50.1156" lon="4.09111">
        <ele>171.4</ele>
        <time>2024-12-24T13:49:56Z</time>
      </trkpt>
      <trkpt lat="50.11561" lon="4.09097">
        <ele>171.4</ele>
        <time>2024-12-24T13:50:07Z</time>
      </trkpt>
      <trkpt lat="50.11567" lon="4.09086">
        <ele>171.3</ele>
        <time>2024-12-24T13:50:20Z</time>
      </trkpt>
      <trkpt lat="50.1157" lon="4.09072">
        <ele>171.1</ele>
        <time>2024-12-24T13:50:31Z</time>
      </trkpt>
      <trkpt lat="50.11575" lon="4.0906">
        <ele>171</ele>
        <time>2024-12-24T13:50:40Z</time>
      </trkpt>
      <trkpt lat="50.11582" lon="4.0905">
        <ele>170.9</ele>
        <time>2024-12-24T13:50:53Z</time>
      </trkpt>
      <trkpt lat="50.11584" lon="4.09036">
        <ele>170.8</ele>
        <time>2024-12-24T13:51:00Z</time>
      </trkpt>
      <trkpt lat="50.11589" lon="4.09024">
        <ele>170.7</ele>
        <time>2024-12-24T13:51:08Z</time>
      </trkpt>
      <trkpt lat="50.11596" lon="4.09014">
        <ele>170.6</ele>
        <time>2024-12-24T13:51:19Z</time>
      </trkpt>
      <trkpt lat="50.116" lon="4.08999">
        <ele>170.5</ele>
        <time>2024-12-24T13:51:37Z</time>
      </trkpt>
      <trkpt lat="50.11608" lon="4.0899">
        <ele>170.4</ele>
        <time>2024-12-24T13:51:41Z</time>
      </trkpt>
      <trkpt lat="50.11616" lon="4.08981">
        <ele>170.3</ele>
        <time>2024-12-24T13:51:54Z</time>
      </trkpt>
      <trkpt lat="50.11623" lon="4.08973">
        <ele>170.2</ele>
        <time>2024-12-24T13:52:07Z</time>
      </trkpt>
      <trkpt lat="50.11633" lon="4.08969">
        <ele>170</ele>
        <time>2024-12-24T13:52:15Z</time>
      </trkpt>
      <trkpt lat="50.11642" lon="4.08971">
        <ele>169.9</ele>
        <time>2024-12-24T13:52:25Z</time>
      </trkpt>
      <trkpt lat="50.11652" lon="4.08972">
        <ele>169.9</ele>
        <time>2024-12-24T13:52:37Z</time>
      </trkpt>
      <trkpt lat="50.1166" lon="4.0898">
        <ele>169.9</ele>
        <time>2024-12-24T13:52:44Z</time>
      </trkpt>
      <trkpt lat="50.11669" lon="4.08984">
        <ele>169.9</ele>
        <time>2024-12-24T13:52:51Z</time>
      </trkpt>
      <trkpt lat="50.11678" lon="4.08983">
        <ele>169.8</ele>
        <time>2024-12-24T13:52:57Z</time>
      </trkpt>
      <trkpt lat="50.11688" lon="4.08985">
        <ele>169.8</ele>
        <time>2024-12-24T13:53:06Z</time>
      </trkpt>
      <trkpt lat="50.11698" lon="4.08989">
        <ele>169.8</ele>
        <time>2024-12-24T13:53:16Z</time>
      </trkpt>
      <trkpt lat="50.11707" lon="4.08987">
        <ele>169.7</ele>
        <time>2024-12-24T13:53:30Z</time>
      </trkpt>
      <trkpt lat="50.11716" lon="4.08991">
        <ele>169.7</ele>
        <time>2024-12-24T13:53:39Z</time>
      </trkpt>
      <trkpt lat="50.11725" lon="4.08994">
        <ele>169.7</ele>
        <time>2024-12-24T13:53:54Z</time>
      </trkpt>
      <trkpt lat="50.11735" lon="4.08992">
        <ele>169.6</ele>
        <time>2024-12-24T13:54:01Z</time>
      </trkpt>
      <trkpt lat="50.11745" lon="4.08993">
        <ele>169.6</ele>
        <time>2024-12-24T13:54:09Z</time>
      </trkpt>
      <trkpt lat="50.11754" lon="4.08997">
        <ele>169.6</ele>
        <time>2024-12-24T13:54:18Z</time>
      </trkpt>
      <trkpt lat="50.11763" lon="4.09001">
        <ele>169.6</ele>
        <time>2024-12-24T13:54:28Z</time>
      </trkpt>
      <trkpt lat="50.11772" lon="4.09006">
        <ele>169.6</ele>
        <time>2024-12-24T13:54:38Z</time>
      </trkpt>
      <trkpt lat="50.11782" lon="4.09009">
        <ele>169.6</ele>
        <time>2024-12-24T13:54:49Z</time>
      </trkpt>
      <trkpt lat="50.11792" lon="4.09001">
        <ele>169.6</ele>
        <time>2024-12-24T13:54:59Z</time>
      </trkpt>
      <trkpt lat="50.11799" lon="4.08992">
        <ele>169.6</ele>
        <time>2024-12-24T13:55:06Z</time>
      </trkpt>
      <trkpt lat="50.11802" lon="4.08979">
        <ele>169.6</ele>
        <time>2024-12-24T13:55:15Z</time>
      </trkpt>
      <trkpt lat="50.11792" lon="4.08982">
        <ele>169.6</ele>
        <time>2024-12-24T13:55:21Z</time>
      </trkpt>
      <trkpt lat="50.11795" lon="4.08996">
        <ele>169.6</ele>
        <time>2024-12-24T13:55:28Z</time>
      </trkpt>
      <trkpt lat="50.11786" lon="4.09">
        <ele>169.5</ele>
        <time>2024-12-24T13:55:35Z</time>
      </trkpt>
      <trkpt lat="50.11794" lon="4.09008">
        <ele>169.4</ele>
        <time>2024-12-24T13:55:46Z</time>
      </trkpt>
      <trkpt lat="50.11804" lon="4.09008">
        <ele>169.3</ele>
        <time>2024-12-24T13:55:52Z</time>
      </trkpt>
      <trkpt lat="50.11814" lon="4.09007">
        <ele>169.3</ele>
        <time>2024-12-24T13:55:58Z</time>
      </trkpt>
      <trkpt lat="50.11823" lon="4.09008">
        <ele>169.2</ele>
        <time>2024-12-24T13:56:09Z</time>
      </trkpt>
      <trkpt lat="50.11832" lon="4.09008">
        <ele>169.2</ele>
        <time>2024-12-24T13:56:18Z</time>
      </trkpt>
      <trkpt lat="50.11842" lon="4.09005">
        <ele>169.2</ele>
        <time>2024-12-24T13:56:24Z</time>
      </trkpt>
      <trkpt lat="50.11851" lon="4.09004">
        <ele>169.2</ele>
        <time>2024-12-24T13:56:36Z</time>
      </trkpt>
      <trkpt lat="50.1186" lon="4.08999">
        <ele>169.2</ele>
        <time>2024-12-24T13:56:45Z</time>
      </trkpt>
      <trkpt lat="50.1187" lon="4.08994">
        <ele>169.3</ele>
        <time>2024-12-24T13:56:52Z</time>
      </trkpt>
      <trkpt lat="50.1188" lon="4.08991">
        <ele>169.3</ele>
        <time>2024-12-24T13:56:59Z</time>
      </trkpt>
      <trkpt lat="50.11889" lon="4.08991">
        <ele>169.4</ele>
        <time>2024-12-24T13:57:09Z</time>
      </trkpt>
      <trkpt lat="50.11896" lon="4.08981">
        <ele>169.5</ele>
        <time>2024-12-24T13:57:17Z</time>
      </trkpt>
      <trkpt lat="50.11905" lon="4.08982">
        <ele>169.5</ele>
        <time>2024-12-24T13:57:27Z</time>
      </trkpt>
      <trkpt lat="50.11915" lon="4.08982">
        <ele>169.5</ele>
        <time>2024-12-24T13:57:36Z</time>
      </trkpt>
      <trkpt lat="50.11922" lon="4.08973">
        <ele>169.6</ele>
        <time>2024-12-24T13:57:45Z</time>
      </trkpt>
      <trkpt lat="50.11932" lon="4.0897">
        <ele>169.6</ele>
        <time>2024-12-24T13:57:54Z</time>
      </trkpt>
      <trkpt lat="50.11942" lon="4.08966">
        <ele>169.6</ele>
        <time>2024-12-24T13:58:02Z</time>
      </trkpt>
      <trkpt lat="50.11952" lon="4.08969">
        <ele>169.6</ele>
        <time>2024-12-24T13:58:11Z</time>
      </trkpt>
      <trkpt lat="50.1196" lon="4.08963">
        <ele>169.6</ele>
        <time>2024-12-24T13:58:19Z</time>
      </trkpt>
      <trkpt lat="50.11968" lon="4.08954">
        <ele>169.6</ele>
        <time>2024-12-24T13:58:25Z</time>
      </trkpt>
      <trkpt lat="50.11978" lon="4.08948">
        <ele>169.6</ele>
        <time>2024-12-24T13:58:31Z</time>
      </trkpt>
      <trkpt lat="50.11986" lon="4.0894">
        <ele>169.6</ele>
        <time>2024-12-24T13:58:42Z</time>
      </trkpt>
      <trkpt lat="50.11994" lon="4.08934">
        <ele>169.7</ele>
        <time>2024-12-24T13:58:57Z</time>
      </trkpt>
      <trkpt lat="50.12003" lon="4.08927">
        <ele>169.7</ele>
        <time>2024-12-24T13:59:06Z</time>
      </trkpt>
      <trkpt lat="50.12011" lon="4.08921">
        <ele>169.6</ele>
        <time>2024-12-24T13:59:23Z</time>
      </trkpt>
      <trkpt lat="50.12019" lon="4.08913">
        <ele>169.6</ele>
        <time>2024-12-24T13:59:31Z</time>
      </trkpt>
      <trkpt lat="50.12027" lon="4.08904">
        <ele>169.6</ele>
        <time>2024-12-24T13:59:39Z</time>
      </trkpt>
      <trkpt lat="50.12035" lon="4.08894">
        <ele>169.5</ele>
        <time>2024-12-24T13:59:48Z</time>
      </trkpt>
      <trkpt lat="50.12042" lon="4.08884">
        <ele>169.5</ele>
        <time>2024-12-24T14:00:00Z</time>
      </trkpt>
      <trkpt lat="50.12047" lon="4.08872">
        <ele>169.5</ele>
        <time>2024-12-24T14:00:10Z</time>
      </trkpt>
      <trkpt lat="50.12051" lon="4.0886">
        <ele>169.5</ele>
        <time>2024-12-24T14:00:23Z</time>
      </trkpt>
      <trkpt lat="50.12058" lon="4.08848">
        <ele>169.4</ele>
        <time>2024-12-24T14:00:32Z</time>
      </trkpt>
      <trkpt lat="50.12063" lon="4.08836">
        <ele>169.3</ele>
        <time>2024-12-24T14:00:43Z</time>
      </trkpt>
      <trkpt lat="50.12069" lon="4.08824">
        <ele>169.2</ele>
        <time>2024-12-24T14:00:53Z</time>
      </trkpt>
      <trkpt lat="50.12073" lon="4.08811">
        <ele>169.1</ele>
        <time>2024-12-24T14:01:01Z</time>
      </trkpt>
      <trkpt lat="50.12081" lon="4.08801">
        <ele>169</ele>
        <time>2024-12-24T14:01:15Z</time>
      </trkpt>
      <trkpt lat="50.12087" lon="4.0879">
        <ele>169</ele>
        <time>2024-12-24T14:01:22Z</time>
      </trkpt>
      <trkpt lat="50.12092" lon="4.08779">
        <ele>168.9</ele>
        <time>2024-12-24T14:01:30Z</time>
      </trkpt>
      <trkpt lat="50.12097" lon="4.08766">
        <ele>168.9</ele>
        <time>2024-12-24T14:01:41Z</time>
      </trkpt>
      <trkpt lat="50.12099" lon="4.08751">
        <ele>168.9</ele>
        <time>2024-12-24T14:01:52Z</time>
      </trkpt>
      <trkpt lat="50.12104" lon="4.08738">
        <ele>168.9</ele>
        <time>2024-12-24T14:02:01Z</time>
      </trkpt>
      <trkpt lat="50.1211" lon="4.08726">
        <ele>168.9</ele>
        <time>2024-12-24T14:02:12Z</time>
      </trkpt>
      <trkpt lat="50.12112" lon="4.08712">
        <ele>168.8</ele>
        <time>2024-12-24T14:02:26Z</time>
      </trkpt>
      <trkpt lat="50.12117" lon="4.087">
        <ele>168.8</ele>
        <time>2024-12-24T14:02:34Z</time>
      </trkpt>
      <trkpt lat="50.12123" lon="4.08688">
        <ele>168.8</ele>
        <time>2024-12-24T14:02:44Z</time>
      </trkpt>
      <trkpt lat="50.12128" lon="4.08677">
        <ele>168.8</ele>
        <time>2024-12-24T14:02:54Z</time>
      </trkpt>
      <trkpt lat="50.12132" lon="4.08664">
        <ele>168.8</ele>
        <time>2024-12-24T14:03:02Z</time>
      </trkpt>
      <trkpt lat="50.12134" lon="4.08648">
        <ele>168.8</ele>
        <time>2024-12-24T14:03:12Z</time>
      </trkpt>
      <trkpt lat="50.12136" lon="4.08633">
        <ele>168.8</ele>
        <time>2024-12-24T14:03:23Z</time>
      </trkpt>
      <trkpt lat="50.12131" lon="4.08619">
        <ele>168.8</ele>
        <time>2024-12-24T14:03:33Z</time>
      </trkpt>
      <trkpt lat="50.12131" lon="4.08604">
        <ele>168.8</ele>
        <time>2024-12-24T14:03:44Z</time>
      </trkpt>
      <trkpt lat="50.12129" lon="4.08589">
        <ele>168.8</ele>
        <time>2024-12-24T14:03:53Z</time>
      </trkpt>
      <trkpt lat="50.1213" lon="4.08574">
        <ele>168.7</ele>
        <time>2024-12-24T14:04:07Z</time>
      </trkpt>
      <trkpt lat="50.12129" lon="4.08558">
        <ele>168.7</ele>
        <time>2024-12-24T14:04:16Z</time>
      </trkpt>
      <trkpt lat="50.12126" lon="4.08543">
        <ele>168.7</ele>
        <time>2024-12-24T14:04:30Z</time>
      </trkpt>
      <trkpt lat="50.12126" lon="4.08527">
        <ele>168.6</ele>
        <time>2024-12-24T14:04:39Z</time>
      </trkpt>
      <trkpt lat="50.12126" lon="4.08513">
        <ele>168.6</ele>
        <time>2024-12-24T14:04:49Z</time>
      </trkpt>
      <trkpt lat="50.12124" lon="4.08498">
        <ele>168.5</ele>
        <time>2024-12-24T14:05:00Z</time>
      </trkpt>
      <trkpt lat="50.12117" lon="4.08486">
        <ele>168.5</ele>
        <time>2024-12-24T14:05:11Z</time>
      </trkpt>
      <trkpt lat="50.1212" lon="4.08471">
        <ele>168.5</ele>
        <time>2024-12-24T14:05:18Z</time>
      </trkpt>
      <trkpt lat="50.12122" lon="4.08457">
        <ele>168.5</ele>
        <time>2024-12-24T14:05:28Z</time>
      </trkpt>
      <trkpt lat="50.12122" lon="4.08443">
        <ele>168.5</ele>
        <time>2024-12-24T14:05:35Z</time>
      </trkpt>
      <trkpt lat="50.1212" lon="4.08429">
        <ele>168.5</ele>
        <time>2024-12-24T14:05:45Z</time>
      </trkpt>
      <trkpt lat="50.1212" lon="4.08414">
        <ele>168.4</ele>
        <time>2024-12-24T14:05:55Z</time>
      </trkpt>
      <trkpt lat="50.12121" lon="4.08399">
        <ele>168.4</ele>
        <time>2024-12-24T14:06:04Z</time>
      </trkpt>
      <trkpt lat="50.12119" lon="4.08384">
        <ele>168.4</ele>
        <time>2024-12-24T14:06:14Z</time>
      </trkpt>
      <trkpt lat="50.12118" lon="4.0837">
        <ele>168.4</ele>
        <time>2024-12-24T14:06:23Z</time>
      </trkpt>
      <trkpt lat="50.12116" lon="4.08355">
        <ele>168.4</ele>
        <time>2024-12-24T14:06:35Z</time>
      </trkpt>
      <trkpt lat="50.12114" lon="4.0834">
        <ele>168.4</ele>
        <time>2024-12-24T14:06:46Z</time>
      </trkpt>
      <trkpt lat="50.12115" lon="4.08325">
        <ele>168.4</ele>
        <time>2024-12-24T14:06:55Z</time>
      </trkpt>
      <trkpt lat="50.12117" lon="4.08311">
        <ele>168.4</ele>
        <time>2024-12-24T14:07:04Z</time>
      </trkpt>
      <trkpt lat="50.12118" lon="4.08296">
        <ele>168.5</ele>
        <time>2024-12-24T14:07:15Z</time>
      </trkpt>
      <trkpt lat="50.12116" lon="4.08281">
        <ele>168.5</ele>
        <time>2024-12-24T14:07:23Z</time>
      </trkpt>
      <trkpt lat="50.12114" lon="4.08267">
        <ele>168.5</ele>
        <time>2024-12-24T14:07:31Z</time>
      </trkpt>
      <trkpt lat="50.12112" lon="4.08252">
        <ele>168.4</ele>
        <time>2024-12-24T14:07:43Z</time>
      </trkpt>
      <trkpt lat="50.12111" lon="4.08238">
        <ele>168.4</ele>
        <time>2024-12-24T14:07:54Z</time>
      </trkpt>
      <trkpt lat="50.12114" lon="4.08224">
        <ele>168.4</ele>
        <time>2024-12-24T14:08:05Z</time>
      </trkpt>
      <trkpt lat="50.12116" lon="4.08208">
        <ele>168.4</ele>
        <time>2024-12-24T14:08:16Z</time>
      </trkpt>
      <trkpt lat="50.12114" lon="4.08194">
        <ele>168.4</ele>
        <time>2024-12-24T14:08:27Z</time>
      </trkpt>
      <trkpt lat="50.12105" lon="4.08184">
        <ele>168.4</ele>
        <time>2024-12-24T14:08:38Z</time>
      </trkpt>
      <trkpt lat="50.12098" lon="4.08175">
        <ele>168.4</ele>
        <time>2024-12-24T14:08:44Z</time>
      </trkpt>
      <trkpt lat="50.12095" lon="4.0816">
        <ele>168.3</ele>
        <time>2024-12-24T14:08:50Z</time>
      </trkpt>
      <trkpt lat="50.12088" lon="4.08149">
        <ele>168.2</ele>
        <time>2024-12-24T14:09:04Z</time>
      </trkpt>
      <trkpt lat="50.1208" lon="4.08141">
        <ele>168.2</ele>
        <time>2024-12-24T14:09:10Z</time>
      </trkpt>
      <trkpt lat="50.12073" lon="4.08131">
        <ele>168.2</ele>
        <time>2024-12-24T14:09:16Z</time>
      </trkpt>
      <trkpt lat="50.12068" lon="4.08144">
        <ele>168.2</ele>
        <time>2024-12-24T14:09:28Z</time>
      </trkpt>
      <trkpt lat="50.12068" lon="4.0816">
        <ele>168.2</ele>
        <time>2024-12-24T14:09:40Z</time>
      </trkpt>
      <trkpt lat="50.12066" lon="4.08176">
        <ele>168.2</ele>
        <time>2024-12-24T14:09:50Z</time>
      </trkpt>
      <trkpt lat="50.12063" lon="4.0819">
        <ele>168.2</ele>
        <time>2024-12-24T14:10:00Z</time>
      </trkpt>
      <trkpt lat="50.12058" lon="4.08202">
        <ele>168.2</ele>
        <time>2024-12-24T14:10:09Z</time>
      </trkpt>
      <trkpt lat="50.12054" lon="4.08215">
        <ele>168.2</ele>
        <time>2024-12-24T14:10:19Z</time>
      </trkpt>
      <trkpt lat="50.12048" lon="4.08227">
        <ele>168.3</ele>
        <time>2024-12-24T14:10:30Z</time>
      </trkpt>
      <trkpt lat="50.12044" lon="4.0824">
        <ele>168.4</ele>
        <time>2024-12-24T14:10:39Z</time>
      </trkpt>
      <trkpt lat="50.12038" lon="4.08251">
        <ele>168.4</ele>
        <time>2024-12-24T14:10:52Z</time>
      </trkpt>
      <trkpt lat="50.12033" lon="4.08255">
        <ele>168.5</ele>
        <time>2024-12-24T14:10:59Z</time>
      </trkpt>
      <trkpt lat="50.12033" lon="4.08256">
        <ele>168.5</ele>
        <time>2024-12-24T14:11:00Z</time>
      </trkpt>
      <trkpt lat="50.12033" lon="4.08256">
        <ele>168.5</ele>
        <time>2024-12-24T14:11:01Z</time>
      </trkpt>
      <trkpt lat="50.12033" lon="4.08257">
        <ele>168.5</ele>
        <time>2024-12-24T14:11:02Z</time>
      </trkpt>
      <trkpt lat="50.12034" lon="4.08257">
        <ele>168.5</ele>
        <time>2024-12-24T14:11:03Z</time>
      </trkpt>
      <trkpt lat="50.12034" lon="4.08257">
        <ele>168.5</ele>
        <time>2024-12-24T14:11:04Z</time>
      </trkpt>
      <trkpt lat="50.12024" lon="4.08254">
        <ele>168.6</ele>
        <time>2024-12-24T14:11:18Z</time>
      </trkpt>
      <trkpt lat="50.12015" lon="4.08248">
        <ele>168.7</ele>
        <time>2024-12-24T14:11:26Z</time>
      </trkpt>
      <trkpt lat="50.12004" lon="4.08249">
        <ele>168.8</ele>
        <time>2024-12-24T14:11:34Z</time>
      </trkpt>
      <trkpt lat="50.11995" lon="4.08249">
        <ele>168.8</ele>
        <time>2024-12-24T14:11:42Z</time>
      </trkpt>
      <trkpt lat="50.11987" lon="4.0825">
        <ele>168.9</ele>
        <time>2024-12-24T14:11:57Z</time>
      </trkpt>
      <trkpt lat="50.11987" lon="4.0825">
        <ele>168.9</ele>
        <time>2024-12-24T14:11:58Z</time>
      </trkpt>
      <trkpt lat="50.11986" lon="4.08249">
        <ele>168.9</ele>
        <time>2024-12-24T14:12:04Z</time>
      </trkpt>
      <trkpt lat="50.11985" lon="4.08249">
        <ele>168.9</ele>
        <time>2024-12-24T14:12:05Z</time>
      </trkpt>
      <trkpt lat="50.11985" lon="4.08249">
        <ele>168.9</ele>
        <time>2024-12-24T14:12:06Z</time>
      </trkpt>
      <trkpt lat="50.11978" lon="4.08247">
        <ele>168.9</ele>
        <time>2024-12-24T14:12:19Z</time>
      </trkpt>
      <trkpt lat="50.11978" lon="4.08247">
        <ele>168.9</ele>
        <time>2024-12-24T14:12:20Z</time>
      </trkpt>
      <trkpt lat="50.11978" lon="4.08247">
        <ele>168.9</ele>
        <time>2024-12-24T14:12:21Z</time>
      </trkpt>
      <trkpt lat="50.11978" lon="4.0825">
        <ele>168.9</ele>
        <time>2024-12-24T14:13:43Z</time>
      </trkpt>
      <trkpt lat="50.11979" lon="4.0825">
        <ele>168.9</ele>
        <time>2024-12-24T14:13:44Z</time>
      </trkpt>
      <trkpt lat="50.11979" lon="4.08251">
        <ele>168.9</ele>
        <time>2024-12-24T14:13:47Z</time>
      </trkpt>
      <trkpt lat="50.11979" lon="4.08251">
        <ele>168.9</ele>
        <time>2024-12-24T14:13:48Z</time>
      </trkpt>
      <trkpt lat="50.11979" lon="4.08251">
        <ele>168.9</ele>
        <time>2024-12-24T14:13:52Z</time>
      </trkpt>
      <trkpt lat="50.11979" lon="4.08251">
        <ele>168.9</ele>
        <time>2024-12-24T14:13:53Z</time>
      </trkpt>
      <trkpt lat="50.11979" lon="4.08251">
        <ele>168.9</ele>
        <time>2024-12-24T14:13:54Z</time>
      </trkpt>
      <trkpt lat="50.11979" lon="4.08251">
        <ele>168.9</ele>
        <time>2024-12-24T14:13:55Z</time>
      </trkpt>
      <trkpt lat="50.11979" lon="4.08251">
        <ele>168.9</ele>
        <time>2024-12-24T14:14:20Z</time>
      </trkpt>
      <trkpt lat="50.11979" lon="4.08251">
        <ele>168.9</ele>
        <time>2024-12-24T14:14:21Z</time>
      </trkpt>
      <trkpt lat="50.11979" lon="4.08251">
        <ele>168.9</ele>
        <time>2024-12-24T14:14:22Z</time>
      </trkpt>
      <trkpt lat="50.11977" lon="4.08251">
        <ele>168.9</ele>
        <time>2024-12-24T14:14:48Z</time>
      </trkpt>
      <trkpt lat="50.11977" lon="4.08251">
        <ele>168.9</ele>
        <time>2024-12-24T14:14:53Z</time>
      </trkpt>
      <trkpt lat="50.11979" lon="4.0825">
        <ele>168.9</ele>
        <time>2024-12-24T14:14:58Z</time>
      </trkpt>
      <trkpt lat="50.11981" lon="4.08249">
        <ele>168.9</ele>
        <time>2024-12-24T14:15:24Z</time>
      </trkpt>
      <trkpt lat="50.11981" lon="4.08248">
        <ele>168.9</ele>
        <time>2024-12-24T14:15:25Z</time>
      </trkpt>
      <trkpt lat="50.11981" lon="4.08248">
        <ele>168.9</ele>
        <time>2024-12-24T14:15:27Z</time>
      </trkpt>
      <trkpt lat="50.1198" lon="4.08248">
        <ele>168.9</ele>
        <time>2024-12-24T14:15:32Z</time>
      </trkpt>
      <trkpt lat="50.1198" lon="4.08247">
        <ele>168.9</ele>
        <time>2024-12-24T14:15:34Z</time>
      </trkpt>
      <trkpt lat="50.1198" lon="4.08247">
        <ele>168.9</ele>
        <time>2024-12-24T14:15:35Z</time>
      </trkpt>
      <trkpt lat="50.11971" lon="4.08242">
        <ele>169</ele>
        <time>2024-12-24T14:16:14Z</time>
      </trkpt>
      <trkpt lat="50.11971" lon="4.08243">
        <ele>169</ele>
        <time>2024-12-24T14:16:18Z</time>
      </trkpt>
      <trkpt lat="50.11971" lon="4.08243">
        <ele>169</ele>
        <time>2024-12-24T14:16:19Z</time>
      </trkpt>
      <trkpt lat="50.11975" lon="4.08246">
        <ele>169</ele>
        <time>2024-12-24T14:16:38Z</time>
      </trkpt>
      <trkpt lat="50.11976" lon="4.08246">
        <ele>168.9</ele>
        <time>2024-12-24T14:16:39Z</time>
      </trkpt>
      <trkpt lat="50.11977" lon="4.08247">
        <ele>168.9</ele>
        <time>2024-12-24T14:16:40Z</time>
      </trkpt>
      <trkpt lat="50.11986" lon="4.0825">
        <ele>168.9</ele>
        <time>2024-12-24T14:16:54Z</time>
      </trkpt>
      <trkpt lat="50.11995" lon="4.0825">
        <ele>168.9</ele>
        <time>2024-12-24T14:17:06Z</time>
      </trkpt>
      <trkpt lat="50.12005" lon="4.08254">
        <ele>168.8</ele>
        <time>2024-12-24T14:17:19Z</time>
      </trkpt>
      <trkpt lat="50.12014" lon="4.08255">
        <ele>168.8</ele>
        <time>2024-12-24T14:17:29Z</time>
      </trkpt>
      <trkpt lat="50.12015" lon="4.0827">
        <ele>168.7</ele>
        <time>2024-12-24T14:17:43Z</time>
      </trkpt>
      <trkpt lat="50.12015" lon="4.08284">
        <ele>168.8</ele>
        <time>2024-12-24T14:17:55Z</time>
      </trkpt>
      <trkpt lat="50.12012" lon="4.083">
        <ele>168.8</ele>
        <time>2024-12-24T14:18:06Z</time>
      </trkpt>
      <trkpt lat="50.12005" lon="4.0831">
        <ele>168.8</ele>
        <time>2024-12-24T14:18:14Z</time>
      </trkpt>
      <trkpt lat="50.12001" lon="4.08323">
        <ele>168.8</ele>
        <time>2024-12-24T14:18:25Z</time>
      </trkpt>
      <trkpt lat="50.12002" lon="4.08338">
        <ele>168.8</ele>
        <time>2024-12-24T14:18:33Z</time>
      </trkpt>
      <trkpt lat="50.12" lon="4.08354">
        <ele>168.8</ele>
        <time>2024-12-24T14:18:45Z</time>
      </trkpt>
      <trkpt lat="50.12" lon="4.08369">
        <ele>168.9</ele>
        <time>2024-12-24T14:19:01Z</time>
      </trkpt>
      <trkpt lat="50.11997" lon="4.08384">
        <ele>168.9</ele>
        <time>2024-12-24T14:19:13Z</time>
      </trkpt>
      <trkpt lat="50.11994" lon="4.08397">
        <ele>169</ele>
        <time>2024-12-24T14:19:22Z</time>
      </trkpt>
      <trkpt lat="50.11991" lon="4.08412">
        <ele>169</ele>
        <time>2024-12-24T14:19:33Z</time>
      </trkpt>
      <trkpt lat="50.11988" lon="4.08425">
        <ele>169.1</ele>
        <time>2024-12-24T14:19:43Z</time>
      </trkpt>
      <trkpt lat="50.11983" lon="4.08438">
        <ele>169.1</ele>
        <time>2024-12-24T14:19:52Z</time>
      </trkpt>
      <trkpt lat="50.11979" lon="4.08451">
        <ele>169.2</ele>
        <time>2024-12-24T14:20:03Z</time>
      </trkpt>
      <trkpt lat="50.1197" lon="4.0846">
        <ele>169.3</ele>
        <time>2024-12-24T14:20:10Z</time>
      </trkpt>
      <trkpt lat="50.1197" lon="4.08476">
        <ele>169.3</ele>
        <time>2024-12-24T14:20:19Z</time>
      </trkpt>
      <trkpt lat="50.11968" lon="4.08491">
        <ele>169.3</ele>
        <time>2024-12-24T14:20:31Z</time>
      </trkpt>
      <trkpt lat="50.11966" lon="4.08506">
        <ele>169.3</ele>
        <time>2024-12-24T14:20:42Z</time>
      </trkpt>
      <trkpt lat="50.11961" lon="4.08518">
        <ele>169.3</ele>
        <time>2024-12-24T14:20:51Z</time>
      </trkpt>
      <trkpt lat="50.11953" lon="4.08529">
        <ele>169.4</ele>
        <time>2024-12-24T14:20:59Z</time>
      </trkpt>
      <trkpt lat="50.11947" lon="4.0854">
        <ele>169.5</ele>
        <time>2024-12-24T14:21:07Z</time>
      </trkpt>
      <trkpt lat="50.11942" lon="4.08553">
        <ele>169.5</ele>
        <time>2024-12-24T14:21:18Z</time>
      </trkpt>
      <trkpt lat="50.11935" lon="4.08564">
        <ele>169.5</ele>
        <time>2024-12-24T14:21:29Z</time>
      </trkpt>
      <trkpt lat="50.11926" lon="4.08571">
        <ele>169.5</ele>
        <time>2024-12-24T14:21:38Z</time>
      </trkpt>
      <trkpt lat="50.11918" lon="4.08579">
        <ele>169.5</ele>
        <time>2024-12-24T14:21:47Z</time>
      </trkpt>
      <trkpt lat="50.11909" lon="4.08585">
        <ele>169.5</ele>
        <time>2024-12-24T14:21:59Z</time>
      </trkpt>
      <trkpt lat="50.119" lon="4.08591">
        <ele>169.5</ele>
        <time>2024-12-24T14:22:08Z</time>
      </trkpt>
      <trkpt lat="50.11891" lon="4.08594">
        <ele>169.6</ele>
        <time>2024-12-24T14:22:18Z</time>
      </trkpt>
      <trkpt lat="50.11881" lon="4.08594">
        <ele>169.6</ele>
        <time>2024-12-24T14:22:28Z</time>
      </trkpt>
      <trkpt lat="50.11872" lon="4.08592">
        <ele>169.6</ele>
        <time>2024-12-24T14:22:35Z</time>
      </trkpt>
      <trkpt lat="50.11863" lon="4.08595">
        <ele>169.7</ele>
        <time>2024-12-24T14:22:46Z</time>
      </trkpt>
      <trkpt lat="50.11858" lon="4.08608">
        <ele>169.7</ele>
        <time>2024-12-24T14:22:57Z</time>
      </trkpt>
      <trkpt lat="50.11854" lon="4.08623">
        <ele>169.7</ele>
        <time>2024-12-24T14:23:09Z</time>
      </trkpt>
      <trkpt lat="50.11852" lon="4.08637">
        <ele>169.7</ele>
        <time>2024-12-24T14:23:19Z</time>
      </trkpt>
      <trkpt lat="50.11858" lon="4.0865">
        <ele>169.6</ele>
        <time>2024-12-24T14:23:29Z</time>
      </trkpt>
      <trkpt lat="50.11867" lon="4.08648">
        <ele>169.5</ele>
        <time>2024-12-24T14:23:38Z</time>
      </trkpt>
      <trkpt lat="50.11878" lon="4.08644">
        <ele>169.4</ele>
        <time>2024-12-24T14:23:50Z</time>
      </trkpt>
      <trkpt lat="50.11887" lon="4.08641">
        <ele>169.3</ele>
        <time>2024-12-24T14:23:59Z</time>
      </trkpt>
      <trkpt lat="50.11896" lon="4.08637">
        <ele>169.2</ele>
        <time>2024-12-24T14:24:14Z</time>
      </trkpt>
      <trkpt lat="50.11905" lon="4.08634">
        <ele>169.1</ele>
        <time>2024-12-24T14:24:19Z</time>
      </trkpt>
      <trkpt lat="50.11915" lon="4.08636">
        <ele>168.9</ele>
        <time>2024-12-24T14:24:27Z</time>
      </trkpt>
      <trkpt lat="50.11923" lon="4.08629">
        <ele>168.8</ele>
        <time>2024-12-24T14:24:40Z</time>
      </trkpt>
      <trkpt lat="50.11931" lon="4.0862">
        <ele>168.6</ele>
        <time>2024-12-24T14:24:53Z</time>
      </trkpt>
      <trkpt lat="50.11939" lon="4.08615">
        <ele>168.6</ele>
        <time>2024-12-24T14:25:07Z</time>
      </trkpt>
      <trkpt lat="50.11947" lon="4.08606">
        <ele>168.5</ele>
        <time>2024-12-24T14:25:15Z</time>
      </trkpt>
      <trkpt lat="50.11954" lon="4.08597">
        <ele>168.5</ele>
        <time>2024-12-24T14:25:25Z</time>
      </trkpt>
      <trkpt lat="50.11961" lon="4.08587">
        <ele>168.5</ele>
        <time>2024-12-24T14:25:38Z</time>
      </trkpt>
      <trkpt lat="50.11968" lon="4.08577">
        <ele>168.6</ele>
        <time>2024-12-24T14:25:49Z</time>
      </trkpt>
      <trkpt lat="50.11973" lon="4.08565">
        <ele>168.6</ele>
        <time>2024-12-24T14:25:57Z</time>
      </trkpt>
      <trkpt lat="50.11979" lon="4.08552">
        <ele>168.6</ele>
        <time>2024-12-24T14:26:06Z</time>
      </trkpt>
      <trkpt lat="50.11983" lon="4.08539">
        <ele>168.5</ele>
        <time>2024-12-24T14:26:18Z</time>
      </trkpt>
      <trkpt lat="50.11988" lon="4.08526">
        <ele>168.5</ele>
        <time>2024-12-24T14:26:27Z</time>
      </trkpt>
      <trkpt lat="50.11992" lon="4.08514">
        <ele>168.5</ele>
        <time>2024-12-24T14:26:38Z</time>
      </trkpt>
      <trkpt lat="50.11996" lon="4.08501">
        <ele>168.4</ele>
        <time>2024-12-24T14:26:45Z</time>
      </trkpt>
      <trkpt lat="50.11999" lon="4.08487">
        <ele>168.4</ele>
        <time>2024-12-24T14:26:55Z</time>
      </trkpt>
      <trkpt lat="50.12003" lon="4.08473">
        <ele>168.3</ele>
        <time>2024-12-24T14:27:06Z</time>
      </trkpt>
      <trkpt lat="50.12004" lon="4.08459">
        <ele>168.2</ele>
        <time>2024-12-24T14:27:15Z</time>
      </trkpt>
      <trkpt lat="50.12009" lon="4.08445">
        <ele>168.2</ele>
        <time>2024-12-24T14:27:25Z</time>
      </trkpt>
      <trkpt lat="50.12011" lon="4.0843">
        <ele>168.2</ele>
        <time>2024-12-24T14:27:35Z</time>
      </trkpt>
      <trkpt lat="50.12016" lon="4.08418">
        <ele>168.2</ele>
        <time>2024-12-24T14:27:44Z</time>
      </trkpt>
      <trkpt lat="50.12019" lon="4.08404">
        <ele>168.2</ele>
        <time>2024-12-24T14:27:56Z</time>
      </trkpt>
      <trkpt lat="50.12023" lon="4.0839">
        <ele>168.2</ele>
        <time>2024-12-24T14:28:06Z</time>
      </trkpt>
      <trkpt lat="50.12026" lon="4.08375">
        <ele>168.2</ele>
        <time>2024-12-24T14:28:15Z</time>
      </trkpt>
      <trkpt lat="50.12027" lon="4.0836">
        <ele>168.2</ele>
        <time>2024-12-24T14:28:26Z</time>
      </trkpt>
      <trkpt lat="50.12032" lon="4.08348">
        <ele>168.1</ele>
        <time>2024-12-24T14:28:37Z</time>
      </trkpt>
      <trkpt lat="50.12036" lon="4.08334">
        <ele>168.2</ele>
        <time>2024-12-24T14:28:46Z</time>
      </trkpt>
      <trkpt lat="50.12036" lon="4.08318">
        <ele>168.3</ele>
        <time>2024-12-24T14:28:58Z</time>
      </trkpt>
      <trkpt lat="50.12038" lon="4.08305">
        <ele>168.3</ele>
        <time>2024-12-24T14:29:10Z</time>
      </trkpt>
      <trkpt lat="50.12041" lon="4.0829">
        <ele>168.4</ele>
        <time>2024-12-24T14:29:20Z</time>
      </trkpt>
      <trkpt lat="50.12044" lon="4.08276">
        <ele>168.5</ele>
        <time>2024-12-24T14:29:29Z</time>
      </trkpt>
      <trkpt lat="50.12049" lon="4.08263">
        <ele>168.5</ele>
        <time>2024-12-24T14:29:38Z</time>
      </trkpt>
      <trkpt lat="50.12053" lon="4.08251">
        <ele>168.4</ele>
        <time>2024-12-24T14:29:49Z</time>
      </trkpt>
      <trkpt lat="50.12055" lon="4.08236">
        <ele>168.3</ele>
        <time>2024-12-24T14:29:59Z</time>
      </trkpt>
      <trkpt lat="50.12057" lon="4.08222">
        <ele>168.2</ele>
        <time>2024-12-24T14:30:09Z</time>
      </trkpt>
      <trkpt lat="50.12056" lon="4.08206">
        <ele>168.2</ele>
        <time>2024-12-24T14:30:21Z</time>
      </trkpt>
      <trkpt lat="50.1206" lon="4.08193">
        <ele>168.2</ele>
        <time>2024-12-24T14:30:30Z</time>
      </trkpt>
      <trkpt lat="50.12062" lon="4.08179">
        <ele>168.2</ele>
        <time>2024-12-24T14:30:40Z</time>
      </trkpt>
      <trkpt lat="50.12068" lon="4.08167">
        <ele>168.2</ele>
        <time>2024-12-24T14:30:49Z</time>
      </trkpt>
      <trkpt lat="50.12074" lon="4.08156">
        <ele>168.2</ele>
        <time>2024-12-24T14:30:59Z</time>
      </trkpt>
      <trkpt lat="50.12083" lon="4.08161">
        <ele>168.2</ele>
        <time>2024-12-24T14:31:23Z</time>
      </trkpt>
      <trkpt lat="50.12089" lon="4.08172">
        <ele>168.3</ele>
        <time>2024-12-24T14:31:37Z</time>
      </trkpt>
      <trkpt lat="50.12095" lon="4.08182">
        <ele>168.4</ele>
        <time>2024-12-24T14:31:45Z</time>
      </trkpt>
      <trkpt lat="50.12098" lon="4.08196">
        <ele>168.4</ele>
        <time>2024-12-24T14:31:54Z</time>
      </trkpt>
      <trkpt lat="50.12101" lon="4.0821">
        <ele>168.4</ele>
        <time>2024-12-24T14:32:05Z</time>
      </trkpt>
      <trkpt lat="50.12102" lon="4.08225">
        <ele>168.4</ele>
        <time>2024-12-24T14:32:15Z</time>
      </trkpt>
      <trkpt lat="50.12106" lon="4.08238">
        <ele>168.4</ele>
        <time>2024-12-24T14:32:26Z</time>
      </trkpt>
      <trkpt lat="50.12109" lon="4.08252">
        <ele>168.4</ele>
        <time>2024-12-24T14:32:35Z</time>
      </trkpt>
      <trkpt lat="50.12109" lon="4.08267">
        <ele>168.5</ele>
        <time>2024-12-24T14:32:46Z</time>
      </trkpt>
      <trkpt lat="50.12106" lon="4.08281">
        <ele>168.5</ele>
        <time>2024-12-24T14:32:54Z</time>
      </trkpt>
      <trkpt lat="50.12109" lon="4.08296">
        <ele>168.5</ele>
        <time>2024-12-24T14:33:07Z</time>
      </trkpt>
      <trkpt lat="50.12111" lon="4.0831">
        <ele>168.4</ele>
        <time>2024-12-24T14:33:16Z</time>
      </trkpt>
      <trkpt lat="50.12112" lon="4.08325">
        <ele>168.4</ele>
        <time>2024-12-24T14:33:25Z</time>
      </trkpt>
      <trkpt lat="50.12115" lon="4.08339">
        <ele>168.4</ele>
        <time>2024-12-24T14:33:35Z</time>
      </trkpt>
      <trkpt lat="50.12118" lon="4.08353">
        <ele>168.4</ele>
        <time>2024-12-24T14:33:43Z</time>
      </trkpt>
      <trkpt lat="50.12117" lon="4.08367">
        <ele>168.4</ele>
        <time>2024-12-24T14:33:52Z</time>
      </trkpt>
      <trkpt lat="50.12119" lon="4.08382">
        <ele>168.4</ele>
        <time>2024-12-24T14:34:02Z</time>
      </trkpt>
      <trkpt lat="50.12118" lon="4.08396">
        <ele>168.4</ele>
        <time>2024-12-24T14:34:14Z</time>
      </trkpt>
      <trkpt lat="50.12117" lon="4.0841">
        <ele>168.5</ele>
        <time>2024-12-24T14:34:23Z</time>
      </trkpt>
      <trkpt lat="50.12118" lon="4.08425">
        <ele>168.5</ele>
        <time>2024-12-24T14:34:35Z</time>
      </trkpt>
      <trkpt lat="50.12121" lon="4.08438">
        <ele>168.5</ele>
        <time>2024-12-24T14:34:46Z</time>
      </trkpt>
      <trkpt lat="50.12124" lon="4.08453">
        <ele>168.5</ele>
        <time>2024-12-24T14:34:54Z</time>
      </trkpt>
      <trkpt lat="50.12123" lon="4.08467">
        <ele>168.5</ele>
        <time>2024-12-24T14:35:04Z</time>
      </trkpt>
      <trkpt lat="50.12123" lon="4.08482">
        <ele>168.5</ele>
        <time>2024-12-24T14:35:17Z</time>
      </trkpt>
      <trkpt lat="50.12123" lon="4.08497">
        <ele>168.6</ele>
        <time>2024-12-24T14:35:28Z</time>
      </trkpt>
      <trkpt lat="50.12124" lon="4.0851">
        <ele>168.6</ele>
        <time>2024-12-24T14:35:38Z</time>
      </trkpt>
      <trkpt lat="50.12124" lon="4.08525">
        <ele>168.6</ele>
        <time>2024-12-24T14:35:51Z</time>
      </trkpt>
      <trkpt lat="50.12126" lon="4.08539">
        <ele>168.7</ele>
        <time>2024-12-24T14:36:01Z</time>
      </trkpt>
      <trkpt lat="50.12126" lon="4.08554">
        <ele>168.7</ele>
        <time>2024-12-24T14:36:11Z</time>
      </trkpt>
      <trkpt lat="50.12127" lon="4.08569">
        <ele>168.8</ele>
        <time>2024-12-24T14:36:23Z</time>
      </trkpt>
      <trkpt lat="50.12129" lon="4.08584">
        <ele>168.8</ele>
        <time>2024-12-24T14:36:31Z</time>
      </trkpt>
      <trkpt lat="50.12128" lon="4.08599">
        <ele>168.8</ele>
        <time>2024-12-24T14:36:40Z</time>
      </trkpt>
      <trkpt lat="50.12131" lon="4.08612">
        <ele>168.8</ele>
        <time>2024-12-24T14:36:52Z</time>
      </trkpt>
      <trkpt lat="50.12129" lon="4.08627">
        <ele>168.8</ele>
        <time>2024-12-24T14:37:03Z</time>
      </trkpt>
      <trkpt lat="50.12131" lon="4.08642">
        <ele>168.8</ele>
        <time>2024-12-24T14:37:12Z</time>
      </trkpt>
      <trkpt lat="50.12131" lon="4.08656">
        <ele>168.8</ele>
        <time>2024-12-24T14:37:23Z</time>
      </trkpt>
      <trkpt lat="50.1213" lon="4.0867">
        <ele>168.8</ele>
        <time>2024-12-24T14:37:35Z</time>
      </trkpt>
      <trkpt lat="50.12128" lon="4.08685">
        <ele>168.8</ele>
        <time>2024-12-24T14:37:47Z</time>
      </trkpt>
      <trkpt lat="50.12122" lon="4.08697">
        <ele>168.9</ele>
        <time>2024-12-24T14:38:00Z</time>
      </trkpt>
      <trkpt lat="50.12116" lon="4.08709">
        <ele>168.9</ele>
        <time>2024-12-24T14:38:08Z</time>
      </trkpt>
      <trkpt lat="50.12111" lon="4.0872">
        <ele>168.9</ele>
        <time>2024-12-24T14:38:19Z</time>
      </trkpt>
      <trkpt lat="50.12106" lon="4.08734">
        <ele>168.9</ele>
        <time>2024-12-24T14:38:27Z</time>
      </trkpt>
      <trkpt lat="50.12101" lon="4.08747">
        <ele>168.9</ele>
        <time>2024-12-24T14:38:40Z</time>
      </trkpt>
      <trkpt lat="50.12095" lon="4.08758">
        <ele>169</ele>
        <time>2024-12-24T14:38:50Z</time>
      </trkpt>
      <trkpt lat="50.12089" lon="4.0877">
        <ele>169.1</ele>
        <time>2024-12-24T14:39:00Z</time>
      </trkpt>
      <trkpt lat="50.12083" lon="4.08781">
        <ele>169.2</ele>
        <time>2024-12-24T14:39:09Z</time>
      </trkpt>
      <trkpt lat="50.1208" lon="4.08795">
        <ele>169.2</ele>
        <time>2024-12-24T14:39:17Z</time>
      </trkpt>
      <trkpt lat="50.12074" lon="4.08806">
        <ele>169.3</ele>
        <time>2024-12-24T14:39:29Z</time>
      </trkpt>
      <trkpt lat="50.12072" lon="4.0882">
        <ele>169.4</ele>
        <time>2024-12-24T14:39:45Z</time>
      </trkpt>
      <trkpt lat="50.12067" lon="4.08833">
        <ele>169.5</ele>
        <time>2024-12-24T14:39:57Z</time>
      </trkpt>
      <trkpt lat="50.1206" lon="4.08843">
        <ele>169.5</ele>
        <time>2024-12-24T14:40:05Z</time>
      </trkpt>
      <trkpt lat="50.12054" lon="4.08853">
        <ele>169.5</ele>
        <time>2024-12-24T14:40:12Z</time>
      </trkpt>
      <trkpt lat="50.12047" lon="4.08862">
        <ele>169.5</ele>
        <time>2024-12-24T14:40:21Z</time>
      </trkpt>
      <trkpt lat="50.12041" lon="4.08874">
        <ele>169.6</ele>
        <time>2024-12-24T14:40:33Z</time>
      </trkpt>
      <trkpt lat="50.12034" lon="4.08883">
        <ele>169.6</ele>
        <time>2024-12-24T14:40:44Z</time>
      </trkpt>
      <trkpt lat="50.12026" lon="4.08893">
        <ele>169.7</ele>
        <time>2024-12-24T14:40:55Z</time>
      </trkpt>
      <trkpt lat="50.12019" lon="4.08904">
        <ele>169.7</ele>
        <time>2024-12-24T14:41:03Z</time>
      </trkpt>
      <trkpt lat="50.12016" lon="4.08919">
        <ele>169.6</ele>
        <time>2024-12-24T14:41:18Z</time>
      </trkpt>
      <trkpt lat="50.12008" lon="4.08925">
        <ele>169.6</ele>
        <time>2024-12-24T14:41:29Z</time>
      </trkpt>
      <trkpt lat="50.11998" lon="4.08928">
        <ele>169.6</ele>
        <time>2024-12-24T14:41:44Z</time>
      </trkpt>
      <trkpt lat="50.11989" lon="4.08931">
        <ele>169.6</ele>
        <time>2024-12-24T14:41:51Z</time>
      </trkpt>
      <trkpt lat="50.11981" lon="4.08938">
        <ele>169.6</ele>
        <time>2024-12-24T14:42:04Z</time>
      </trkpt>
      <trkpt lat="50.11972" lon="4.08942">
        <ele>169.6</ele>
        <time>2024-12-24T14:42:14Z</time>
      </trkpt>
      <trkpt lat="50.11962" lon="4.08946">
        <ele>169.6</ele>
        <time>2024-12-24T14:42:23Z</time>
      </trkpt>
      <trkpt lat="50.11954" lon="4.0895">
        <ele>169.5</ele>
        <time>2024-12-24T14:42:35Z</time>
      </trkpt>
      <trkpt lat="50.11945" lon="4.08954">
        <ele>169.5</ele>
        <time>2024-12-24T14:42:46Z</time>
      </trkpt>
      <trkpt lat="50.11936" lon="4.08958">
        <ele>169.5</ele>
        <time>2024-12-24T14:42:58Z</time>
      </trkpt>
      <trkpt lat="50.11927" lon="4.08963">
        <ele>169.4</ele>
        <time>2024-12-24T14:43:08Z</time>
      </trkpt>
      <trkpt lat="50.11918" lon="4.08965">
        <ele>169.4</ele>
        <time>2024-12-24T14:43:19Z</time>
      </trkpt>
      <trkpt lat="50.11908" lon="4.08968">
        <ele>169.3</ele>
        <time>2024-12-24T14:43:30Z</time>
      </trkpt>
      <trkpt lat="50.11899" lon="4.08972">
        <ele>169.2</ele>
        <time>2024-12-24T14:43:39Z</time>
      </trkpt>
      <trkpt lat="50.11891" lon="4.08974">
        <ele>169.2</ele>
        <time>2024-12-24T14:43:57Z</time>
      </trkpt>
      <trkpt lat="50.1189" lon="4.08974">
        <ele>169.2</ele>
        <time>2024-12-24T14:43:58Z</time>
      </trkpt>
      <trkpt lat="50.11889" lon="4.08973">
        <ele>169.2</ele>
        <time>2024-12-24T14:43:59Z</time>
      </trkpt>
      <trkpt lat="50.11889" lon="4.08974">
        <ele>169.2</ele>
        <time>2024-12-24T14:44:00Z</time>
      </trkpt>
      <trkpt lat="50.11888" lon="4.08975">
        <ele>169.2</ele>
        <time>2024-12-24T14:44:01Z</time>
      </trkpt>
      <trkpt lat="50.1188" lon="4.08977">
        <ele>169.2</ele>
        <time>2024-12-24T14:44:14Z</time>
      </trkpt>
      <trkpt lat="50.11879" lon="4.08977">
        <ele>169.2</ele>
        <time>2024-12-24T14:44:15Z</time>
      </trkpt>
      <trkpt lat="50.11878" lon="4.08977">
        <ele>169.2</ele>
        <time>2024-12-24T14:44:16Z</time>
      </trkpt>
      <trkpt lat="50.11877" lon="4.08978">
        <ele>169.2</ele>
        <time>2024-12-24T14:44:17Z</time>
      </trkpt>
      <trkpt lat="50.11875" lon="4.08979">
        <ele>169.2</ele>
        <time>2024-12-24T14:44:18Z</time>
      </trkpt>
      <trkpt lat="50.11865" lon="4.08983">
        <ele>169.2</ele>
        <time>2024-12-24T14:44:25Z</time>
      </trkpt>
      <trkpt lat="50.11856" lon="4.08989">
        <ele>169.3</ele>
        <time>2024-12-24T14:44:33Z</time>
      </trkpt>
      <trkpt lat="50.11847" lon="4.08992">
        <ele>169.3</ele>
        <time>2024-12-24T14:44:42Z</time>
      </trkpt>
      <trkpt lat="50.11838" lon="4.08998">
        <ele>169.4</ele>
        <time>2024-12-24T14:44:52Z</time>
      </trkpt>
      <trkpt lat="50.11829" lon="4.08997">
        <ele>169.5</ele>
        <time>2024-12-24T14:45:02Z</time>
      </trkpt>
      <trkpt lat="50.1182" lon="4.09003">
        <ele>169.6</ele>
        <time>2024-12-24T14:45:11Z</time>
      </trkpt>
      <trkpt lat="50.1181" lon="4.09004">
        <ele>169.6</ele>
        <time>2024-12-24T14:45:19Z</time>
      </trkpt>
      <trkpt lat="50.118" lon="4.09002">
        <ele>169.6</ele>
        <time>2024-12-24T14:45:32Z</time>
      </trkpt>
      <trkpt lat="50.11791" lon="4.09">
        <ele>169.6</ele>
        <time>2024-12-24T14:45:42Z</time>
      </trkpt>
      <trkpt lat="50.11782" lon="4.08997">
        <ele>169.6</ele>
        <time>2024-12-24T14:45:53Z</time>
      </trkpt>
      <trkpt lat="50.11773" lon="4.08996">
        <ele>169.6</ele>
        <time>2024-12-24T14:46:06Z</time>
      </trkpt>
      <trkpt lat="50.11764" lon="4.08996">
        <ele>169.6</ele>
        <time>2024-12-24T14:46:13Z</time>
      </trkpt>
      <trkpt lat="50.11755" lon="4.08993">
        <ele>169.6</ele>
        <time>2024-12-24T14:46:20Z</time>
      </trkpt>
      <trkpt lat="50.11755" lon="4.08981">
        <ele>169.5</ele>
        <time>2024-12-24T14:46:39Z</time>
      </trkpt>
      <trkpt lat="50.11755" lon="4.08981">
        <ele>169.5</ele>
        <time>2024-12-24T14:46:40Z</time>
      </trkpt>
      <trkpt lat="50.11755" lon="4.08981">
        <ele>169.5</ele>
        <time>2024-12-24T14:46:41Z</time>
      </trkpt>
      <trkpt lat="50.11755" lon="4.0898">
        <ele>169.5</ele>
        <time>2024-12-24T14:46:47Z</time>
      </trkpt>
      <trkpt lat="50.11755" lon="4.08981">
        <ele>169.5</ele>
        <time>2024-12-24T14:46:48Z</time>
      </trkpt>
      <trkpt lat="50.11756" lon="4.0898">
        <ele>169.5</ele>
        <time>2024-12-24T14:46:52Z</time>
      </trkpt>
      <trkpt lat="50.11756" lon="4.0898">
        <ele>169.5</ele>
        <time>2024-12-24T14:46:53Z</time>
      </trkpt>
      <trkpt lat="50.11757" lon="4.08978">
        <ele>169.4</ele>
        <time>2024-12-24T14:47:09Z</time>
      </trkpt>
      <trkpt lat="50.11758" lon="4.08977">
        <ele>169.4</ele>
        <time>2024-12-24T14:47:10Z</time>
      </trkpt>
      <trkpt lat="50.11758" lon="4.08976">
        <ele>169.4</ele>
        <time>2024-12-24T14:47:11Z</time>
      </trkpt>
      <trkpt lat="50.11763" lon="4.08964">
        <ele>169.4</ele>
        <time>2024-12-24T14:47:20Z</time>
      </trkpt>
      <trkpt lat="50.11765" lon="4.0895">
        <ele>169.3</ele>
        <time>2024-12-24T14:47:29Z</time>
      </trkpt>
      <trkpt lat="50.11771" lon="4.08937">
        <ele>169.2</ele>
        <time>2024-12-24T14:47:38Z</time>
      </trkpt>
      <trkpt lat="50.11774" lon="4.08922">
        <ele>169.2</ele>
        <time>2024-12-24T14:47:47Z</time>
      </trkpt>
      <trkpt lat="50.11776" lon="4.08908">
        <ele>169.1</ele>
        <time>2024-12-24T14:47:58Z</time>
      </trkpt>
      <trkpt lat="50.1178" lon="4.08895">
        <ele>169</ele>
        <time>2024-12-24T14:48:08Z</time>
      </trkpt>
      <trkpt lat="50.11785" lon="4.08881">
        <ele>169</ele>
        <time>2024-12-24T14:48:19Z</time>
      </trkpt>
      <trkpt lat="50.11789" lon="4.08867">
        <ele>168.9</ele>
        <time>2024-12-24T14:48:28Z</time>
      </trkpt>
      <trkpt lat="50.11792" lon="4.08853">
        <ele>168.9</ele>
        <time>2024-12-24T14:48:37Z</time>
      </trkpt>
      <trkpt lat="50.11793" lon="4.08839">
        <ele>168.9</ele>
        <time>2024-12-24T14:48:48Z</time>
      </trkpt>
      <trkpt lat="50.11798" lon="4.08826">
        <ele>168.9</ele>
        <time>2024-12-24T14:48:59Z</time>
      </trkpt>
      <trkpt lat="50.11802" lon="4.08814">
        <ele>168.8</ele>
        <time>2024-12-24T14:49:08Z</time>
      </trkpt>
      <trkpt lat="50.11805" lon="4.08799">
        <ele>168.8</ele>
        <time>2024-12-24T14:49:18Z</time>
      </trkpt>
      <trkpt lat="50.1181" lon="4.08786">
        <ele>168.8</ele>
        <time>2024-12-24T14:49:27Z</time>
      </trkpt>
      <trkpt lat="50.11812" lon="4.08771">
        <ele>168.7</ele>
        <time>2024-12-24T14:49:39Z</time>
      </trkpt>
      <trkpt lat="50.11815" lon="4.08758">
        <ele>168.8</ele>
        <time>2024-12-24T14:49:49Z</time>
      </trkpt>
      <trkpt lat="50.1182" lon="4.08744">
        <ele>168.8</ele>
        <time>2024-12-24T14:49:57Z</time>
      </trkpt>
      <trkpt lat="50.11824" lon="4.08731">
        <ele>168.8</ele>
        <time>2024-12-24T14:50:07Z</time>
      </trkpt>
      <trkpt lat="50.11828" lon="4.08718">
        <ele>168.8</ele>
        <time>2024-12-24T14:50:18Z</time>
      </trkpt>
      <trkpt lat="50.11833" lon="4.08707">
        <ele>168.9</ele>
        <time>2024-12-24T14:50:28Z</time>
      </trkpt>
      <trkpt lat="50.11832" lon="4.08692">
        <ele>169</ele>
        <time>2024-12-24T14:50:41Z</time>
      </trkpt>
      <trkpt lat="50.11835" lon="4.08679">
        <ele>169.2</ele>
        <time>2024-12-24T14:50:49Z</time>
      </trkpt>
      <trkpt lat="50.11839" lon="4.08666">
        <ele>169.4</ele>
        <time>2024-12-24T14:50:56Z</time>
      </trkpt>
      <trkpt lat="50.11844" lon="4.08654">
        <ele>169.6</ele>
        <time>2024-12-24T14:51:05Z</time>
      </trkpt>
      <trkpt lat="50.11847" lon="4.08639">
        <ele>169.7</ele>
        <time>2024-12-24T14:51:18Z</time>
      </trkpt>
      <trkpt lat="50.11848" lon="4.08625">
        <ele>169.7</ele>
        <time>2024-12-24T14:51:26Z</time>
      </trkpt>
      <trkpt lat="50.11853" lon="4.08611">
        <ele>169.7</ele>
        <time>2024-12-24T14:51:34Z</time>
      </trkpt>
      <trkpt lat="50.11859" lon="4.086">
        <ele>169.7</ele>
        <time>2024-12-24T14:51:43Z</time>
      </trkpt>
      <trkpt lat="50.11862" lon="4.08587">
        <ele>169.7</ele>
        <time>2024-12-24T14:51:52Z</time>
      </trkpt>
      <trkpt lat="50.11867" lon="4.08572">
        <ele>169.6</ele>
        <time>2024-12-24T14:52:03Z</time>
      </trkpt>
      <trkpt lat="50.11871" lon="4.08559">
        <ele>169.6</ele>
        <time>2024-12-24T14:52:15Z</time>
      </trkpt>
      <trkpt lat="50.11876" lon="4.08548">
        <ele>169.6</ele>
        <time>2024-12-24T14:52:23Z</time>
      </trkpt>
      <trkpt lat="50.11877" lon="4.08533">
        <ele>169.6</ele>
        <time>2024-12-24T14:52:32Z</time>
      </trkpt>
      <trkpt lat="50.11879" lon="4.08519">
        <ele>169.6</ele>
        <time>2024-12-24T14:52:41Z</time>
      </trkpt>
      <trkpt lat="50.11882" lon="4.08505">
        <ele>169.6</ele>
        <time>2024-12-24T14:52:51Z</time>
      </trkpt>
      <trkpt lat="50.11886" lon="4.08492">
        <ele>169.6</ele>
        <time>2024-12-24T14:53:00Z</time>
      </trkpt>
      <trkpt lat="50.11889" lon="4.08477">
        <ele>169.6</ele>
        <time>2024-12-24T14:53:15Z</time>
      </trkpt>
      <trkpt lat="50.11891" lon="4.08463">
        <ele>169.5</ele>
        <time>2024-12-24T14:53:27Z</time>
      </trkpt>
      <trkpt lat="50.11894" lon="4.08449">
        <ele>169.5</ele>
        <time>2024-12-24T14:53:39Z</time>
      </trkpt>
      <trkpt lat="50.11897" lon="4.08435">
        <ele>169.5</ele>
        <time>2024-12-24T14:53:54Z</time>
      </trkpt>
      <trkpt lat="50.11902" lon="4.08423">
        <ele>169.4</ele>
        <time>2024-12-24T14:54:04Z</time>
      </trkpt>
      <trkpt lat="50.11905" lon="4.08409">
        <ele>169.4</ele>
        <time>2024-12-24T14:54:15Z</time>
      </trkpt>
      <trkpt lat="50.11909" lon="4.08396">
        <ele>169.4</ele>
        <time>2024-12-24T14:54:26Z</time>
      </trkpt>
      <trkpt lat="50.11912" lon="4.08383">
        <ele>169.4</ele>
        <time>2024-12-24T14:54:36Z</time>
      </trkpt>
      <trkpt lat="50.11916" lon="4.08368">
        <ele>169.4</ele>
        <time>2024-12-24T14:54:47Z</time>
      </trkpt>
      <trkpt lat="50.11919" lon="4.08354">
        <ele>169.4</ele>
        <time>2024-12-24T14:54:58Z</time>
      </trkpt>
      <trkpt lat="50.11922" lon="4.0834">
        <ele>169.4</ele>
        <time>2024-12-24T14:55:08Z</time>
      </trkpt>
      <trkpt lat="50.11926" lon="4.08327">
        <ele>169.4</ele>
        <time>2024-12-24T14:55:18Z</time>
      </trkpt>
      <trkpt lat="50.11929" lon="4.08313">
        <ele>169.4</ele>
        <time>2024-12-24T14:55:29Z</time>
      </trkpt>
      <trkpt lat="50.11932" lon="4.08298">
        <ele>169.5</ele>
        <time>2024-12-24T14:55:40Z</time>
      </trkpt>
      <trkpt lat="50.11935" lon="4.08284">
        <ele>169.7</ele>
        <time>2024-12-24T14:55:53Z</time>
      </trkpt>
      <trkpt lat="50.11938" lon="4.0827">
        <ele>169.9</ele>
        <time>2024-12-24T14:56:05Z</time>
      </trkpt>
      <trkpt lat="50.11939" lon="4.08255">
        <ele>170</ele>
        <time>2024-12-24T14:56:17Z</time>
      </trkpt>
      <trkpt lat="50.11932" lon="4.08244">
        <ele>170</ele>
        <time>2024-12-24T14:56:30Z</time>
      </trkpt>
      <trkpt lat="50.11923" lon="4.08244">
        <ele>169.9</ele>
        <time>2024-12-24T14:56:40Z</time>
      </trkpt>
      <trkpt lat="50.11914" lon="4.08242">
        <ele>169.8</ele>
        <time>2024-12-24T14:56:51Z</time>
      </trkpt>
      <trkpt lat="50.11905" lon="4.08237">
        <ele>169.8</ele>
        <time>2024-12-24T14:57:03Z</time>
      </trkpt>
      <trkpt lat="50.11896" lon="4.08238">
        <ele>169.9</ele>
        <time>2024-12-24T14:57:13Z</time>
      </trkpt>
      <trkpt lat="50.11886" lon="4.08237">
        <ele>169.9</ele>
        <time>2024-12-24T14:57:23Z</time>
      </trkpt>
      <trkpt lat="50.11877" lon="4.08237">
        <ele>170</ele>
        <time>2024-12-24T14:57:34Z</time>
      </trkpt>
      <trkpt lat="50.11868" lon="4.08239">
        <ele>170</ele>
        <time>2024-12-24T14:57:43Z</time>
      </trkpt>
      <trkpt lat="50.11867" lon="4.08222">
        <ele>170</ele>
        <time>2024-12-24T14:57:57Z</time>
      </trkpt>
      <trkpt lat="50.11869" lon="4.08218">
        <ele>170</ele>
        <time>2024-12-24T14:58:14Z</time>
      </trkpt>
      <trkpt lat="50.1187" lon="4.08215">
        <ele>170</ele>
        <time>2024-12-24T14:58:16Z</time>
      </trkpt>
      <trkpt lat="50.11871" lon="4.08212">
        <ele>170</ele>
        <time>2024-12-24T14:58:16Z</time>
      </trkpt>
      <trkpt lat="50.11871" lon="4.08212">
        <ele>170</ele>
        <time>2024-12-24T14:58:16Z</time>
      </trkpt>
    </trkseg>
  </trk>
</gpx>